sensor_id;sensor_type;location;lat;lon;timestamp;pressure;altitude;pressure_sealevel;temperature;humidity
74544;BME280;63016;55.030;38.710;2023-05-10T00:01:53;101032.56;;;5.85;40.05
74544;BME280;63016;55.030;38.710;2023-05-10T00:04:19;101029.47;;;5.80;40.49
74544;BME280;63016;55.030;38.710;2023-05-10T00:06:45;101027.41;;;5.73;40.57
74544;BME280;63016;55.030;38.710;2023-05-10T00:09:11;101033.28;;;5.75;40.51
74544;BME280;63016;55.030;38.710;2023-05-10T00:11:36;101033.50;;;5.72;40.58
74544;BME280;63016;55.030;38.710;2023-05-10T00:14:02;101026.69;;;5.71;40.63
74544;BME280;63016;55.030;38.710;2023-05-10T00:16:27;101024.19;;;5.69;40.40
74544;BME280;63016;55.030;38.710;2023-05-10T00:18:53;101028.75;;;5.65;40.43
74544;BME280;63016;55.030;38.710;2023-05-10T00:21:19;101034.03;;;5.64;40.12
74544;BME280;63016;55.030;38.710;2023-05-10T00:23:45;101034.25;;;5.61;40.24
74544;BME280;63016;55.030;38.710;2023-05-10T00:26:10;101030.94;;;5.59;40.59
74544;BME280;63016;55.030;38.710;2023-05-10T00:28:36;101021.63;;;5.56;40.41
74544;BME280;63016;55.030;38.710;2023-05-10T00:31:01;101021.22;;;5.50;40.74
74544;BME280;63016;55.030;38.710;2023-05-10T00:33:27;101025.44;;;5.51;40.98
74544;BME280;63016;55.030;38.710;2023-05-10T00:35:52;101030.44;;;5.54;40.76
74544;BME280;63016;55.030;38.710;2023-05-10T00:38:18;101019.75;;;5.46;40.83
74544;BME280;63016;55.030;38.710;2023-05-10T00:40:43;101027.31;;;5.49;40.83
74544;BME280;63016;55.030;38.710;2023-05-10T00:43:09;101025.88;;;5.45;40.55
74544;BME280;63016;55.030;38.710;2023-05-10T00:45:35;101036.13;;;5.46;40.39
74544;BME280;63016;55.030;38.710;2023-05-10T00:48:02;101029.41;;;5.44;40.96
74544;BME280;63016;55.030;38.710;2023-05-10T00:50:28;101028.69;;;5.41;40.64
74544;BME280;63016;55.030;38.710;2023-05-10T00:52:54;101027.84;;;5.41;41.29
74544;BME280;63016;55.030;38.710;2023-05-10T00:55:20;101039.88;;;5.42;40.91
74544;BME280;63016;55.030;38.710;2023-05-10T00:57:47;101034.88;;;5.39;41.01
74544;BME280;63016;55.030;38.710;2023-05-10T01:00:12;101026.72;;;5.32;40.98
74544;BME280;63016;55.030;38.710;2023-05-10T01:02:44;101040.88;;;5.39;41.18
74544;BME280;63016;55.030;38.710;2023-05-10T01:05:09;101026.31;;;5.38;40.83
74544;BME280;63016;55.030;38.710;2023-05-10T01:07:34;101023.81;;;5.37;41.21
74544;BME280;63016;55.030;38.710;2023-05-10T01:10:00;101026.31;;;5.38;40.91
74544;BME280;63016;55.030;38.710;2023-05-10T01:12:26;101032.50;;;5.36;40.57
74544;BME280;63016;55.030;38.710;2023-05-10T01:14:51;101022.38;;;5.33;40.84
74544;BME280;63016;55.030;38.710;2023-05-10T01:17:17;101023.09;;;5.35;40.85
74544;BME280;63016;55.030;38.710;2023-05-10T01:19:43;101026.72;;;5.32;40.92
74544;BME280;63016;55.030;38.710;2023-05-10T01:33:47;101023.63;;;5.27;41.30
74544;BME280;63016;55.030;38.710;2023-05-10T01:36:21;101025.47;;;5.25;41.61
74544;BME280;63016;55.030;38.710;2023-05-10T01:39:11;101031.38;;;5.27;41.49
74544;BME280;63016;55.030;38.710;2023-05-10T01:41:57;101022.88;;;5.25;41.89
74544;BME280;63016;55.030;38.710;2023-05-10T01:44:37;101025.69;;;5.22;41.93
74544;BME280;63016;55.030;38.710;2023-05-10T01:47:12;101032.28;;;5.26;41.42
74544;BME280;63016;55.030;38.710;2023-05-10T01:49:49;101036.63;;;5.26;41.83
74544;BME280;63016;55.030;38.710;2023-05-10T01:52:18;101037.69;;;5.23;41.57
74544;BME280;63016;55.030;38.710;2023-05-10T01:54:55;101054.03;;;5.24;41.89
74544;BME280;63016;55.030;38.710;2023-05-10T01:57:23;101041.22;;;5.22;41.49
74544;BME280;63016;55.030;38.710;2023-05-10T01:59:51;101035.19;;;5.22;41.46
74544;BME280;63016;55.030;38.710;2023-05-10T02:02:20;101041.22;;;5.22;41.58
74544;BME280;63016;55.030;38.710;2023-05-10T02:04:46;101039.34;;;5.24;42.02
74544;BME280;63016;55.030;38.710;2023-05-10T02:07:13;101038.41;;;5.25;41.78
74544;BME280;63016;55.030;38.710;2023-05-10T02:09:40;101037.38;;;5.28;42.18
74544;BME280;63016;55.030;38.710;2023-05-10T02:12:08;101029.38;;;5.31;42.12
74544;BME280;63016;55.030;38.710;2023-05-10T02:14:36;101027.63;;;5.31;42.07
74544;BME280;63016;55.030;38.710;2023-05-10T02:17:04;101027.63;;;5.31;42.04
74544;BME280;63016;55.030;38.710;2023-05-10T02:19:32;101021.44;;;5.34;42.15
74544;BME280;63016;55.030;38.710;2023-05-10T02:21:59;101030.66;;;5.38;41.77
74544;BME280;63016;55.030;38.710;2023-05-10T02:24:26;101021.94;;;5.39;41.93
74544;BME280;63016;55.030;38.710;2023-05-10T02:26:54;101033.88;;;5.41;42.24
74544;BME280;63016;55.030;38.710;2023-05-10T02:29:24;101037.88;;;5.46;42.52
74544;BME280;63016;55.030;38.710;2023-05-10T02:31:54;101040.38;;;5.47;42.35
74544;BME280;63016;55.030;38.710;2023-05-10T02:34:26;101025.44;;;5.51;42.78
74544;BME280;63016;55.030;38.710;2023-05-10T02:36:53;101024.31;;;5.55;42.19
74544;BME280;63016;55.030;38.710;2023-05-10T02:39:21;101027.13;;;5.52;42.65
74544;BME280;63016;55.030;38.710;2023-05-10T02:41:48;101026.69;;;5.58;42.43
74544;BME280;63016;55.030;38.710;2023-05-10T02:44:15;101028.22;;;5.60;42.19
74544;BME280;63016;55.030;38.710;2023-05-10T02:46:42;101035.09;;;5.61;42.30
74544;BME280;63016;55.030;38.710;2023-05-10T02:49:08;101029.59;;;5.66;42.00
74544;BME280;63016;55.030;38.710;2023-05-10T02:51:36;101031.00;;;5.70;42.70
74544;BME280;63016;55.030;38.710;2023-05-10T02:54:08;101021.41;;;5.72;42.94
74544;BME280;63016;55.030;38.710;2023-05-10T02:56:36;101018.56;;;5.75;42.44
74544;BME280;63016;55.030;38.710;2023-05-10T02:59:05;101023.22;;;5.83;42.55
74544;BME280;63016;55.030;38.710;2023-05-10T03:01:31;101018.75;;;5.85;42.50
74544;BME280;63016;55.030;38.710;2023-05-10T03:03:57;101023.63;;;5.89;42.42
74544;BME280;63016;55.030;38.710;2023-05-10T03:06:23;101017.31;;;5.93;42.59
74544;BME280;63016;55.030;38.710;2023-05-10T03:08:48;101023.81;;;5.99;42.60
74544;BME280;63016;55.030;38.710;2023-05-10T03:11:47;101012.22;;;6.05;43.39
74544;BME280;63016;55.030;38.710;2023-05-10T03:14:31;101006.59;;;6.11;42.64
74544;BME280;63016;55.030;38.710;2023-05-10T03:17:07;101003.28;;;6.09;43.38
74544;BME280;63016;55.030;38.710;2023-05-10T03:19:55;101015.38;;;6.21;42.31
74544;BME280;63016;55.030;38.710;2023-05-10T03:22:34;101006.91;;;6.19;43.29
74544;BME280;63016;55.030;38.710;2023-05-10T03:25:05;101013.16;;;6.28;43.16
74544;BME280;63016;55.030;38.710;2023-05-10T03:27:32;101006.13;;;6.30;42.94
74544;BME280;63016;55.030;38.710;2023-05-10T03:29:58;101016.75;;;6.38;42.80
74544;BME280;63016;55.030;38.710;2023-05-10T03:32:23;101004.25;;;6.43;42.79
74544;BME280;63016;55.030;38.710;2023-05-10T03:34:49;101013.38;;;6.49;42.91
74544;BME280;63016;55.030;38.710;2023-05-10T03:37:15;100996.69;;;6.53;42.82
74544;BME280;63016;55.030;38.710;2023-05-10T03:39:40;100999.63;;;6.59;43.14
74544;BME280;63016;55.030;38.710;2023-05-10T03:42:06;100998.22;;;6.66;43.14
74544;BME280;63016;55.030;38.710;2023-05-10T03:44:32;100999.78;;;6.69;43.40
74544;BME280;63016;55.030;38.710;2023-05-10T03:46:58;101003.69;;;6.75;43.02
74544;BME280;63016;55.030;38.710;2023-05-10T03:49:24;101002.06;;;6.85;43.40
74544;BME280;63016;55.030;38.710;2023-05-10T03:51:50;100994.88;;;6.88;43.61
74544;BME280;63016;55.030;38.710;2023-05-10T03:54:15;101003.50;;;7.00;43.12
74544;BME280;63016;55.030;38.710;2023-05-10T03:56:41;100993.50;;;7.07;43.39
74544;BME280;63016;55.030;38.710;2023-05-10T03:59:06;100992.22;;;7.12;43.71
74544;BME280;63016;55.030;38.710;2023-05-10T04:01:34;101000.00;;;7.24;43.61
74544;BME280;63016;55.030;38.710;2023-05-10T04:03:59;100995.19;;;7.30;43.18
74544;BME280;63016;55.030;38.710;2023-05-10T04:06:25;100997.31;;;7.36;43.15
74544;BME280;63016;55.030;38.710;2023-05-10T04:08:50;100993.41;;;7.42;43.29
74544;BME280;63016;55.030;38.710;2023-05-10T04:11:16;101001.31;;;7.52;43.90
74544;BME280;63016;55.030;38.710;2023-05-10T04:13:41;100993.63;;;7.61;43.80
74544;BME280;63016;55.030;38.710;2023-05-10T04:16:08;100994.69;;;7.70;43.82
74544;BME280;63016;55.030;38.710;2023-05-10T04:18:34;101001.66;;;7.81;43.90
74544;BME280;63016;55.030;38.710;2023-05-10T04:21:00;101001.88;;;7.89;43.50
74544;BME280;63016;55.030;38.710;2023-05-10T04:23:26;100987.44;;;7.96;43.23
74544;BME280;63016;55.030;38.710;2023-05-10T04:25:52;100991.78;;;8.07;43.92
74544;BME280;63016;55.030;38.710;2023-05-10T04:28:18;100986.94;;;8.13;43.58
74544;BME280;63016;55.030;38.710;2023-05-10T04:30:43;100989.50;;;8.24;44.47
74544;BME280;63016;55.030;38.710;2023-05-10T04:33:09;100993.63;;;8.38;44.66
74544;BME280;63016;55.030;38.710;2023-05-10T04:35:35;100998.91;;;8.48;43.82
74544;BME280;63016;55.030;38.710;2023-05-10T04:38:00;100983.34;;;8.58;44.43
74544;BME280;63016;55.030;38.710;2023-05-10T04:40:26;100986.03;;;8.67;43.57
74544;BME280;63016;55.030;38.710;2023-05-10T04:42:52;100991.75;;;8.82;44.47
74544;BME280;63016;55.030;38.710;2023-05-10T04:45:17;100988.81;;;8.96;44.25
74544;BME280;63016;55.030;38.710;2023-05-10T04:47:43;100989.44;;;9.10;44.57
74544;BME280;63016;55.030;38.710;2023-05-10T04:50:08;100987.44;;;9.23;43.99
74544;BME280;63016;55.030;38.710;2023-05-10T04:52:34;100983.81;;;9.35;44.47
74544;BME280;63016;55.030;38.710;2023-05-10T04:54:59;100985.22;;;9.49;44.25
74544;BME280;63016;55.030;38.710;2023-05-10T04:57:25;100980.72;;;9.61;44.26
74544;BME280;63016;55.030;38.710;2023-05-10T04:59:50;100968.56;;;9.71;44.71
74544;BME280;63016;55.030;38.710;2023-05-10T05:02:16;100972.59;;;9.94;44.79
74544;BME280;63016;55.030;38.710;2023-05-10T05:04:42;100975.50;;;10.11;44.34
74544;BME280;63016;55.030;38.710;2023-05-10T05:07:07;100980.22;;;10.26;44.82
74544;BME280;63016;55.030;38.710;2023-05-10T05:09:33;100972.78;;;10.41;45.16
74544;BME280;63016;55.030;38.710;2023-05-10T05:11:58;100975.25;;;10.62;44.67
74544;BME280;63016;55.030;38.710;2023-05-10T05:14:24;100977.81;;;10.81;44.15
74544;BME280;63016;55.030;38.710;2023-05-10T05:16:53;100983.69;;;11.03;44.50
74544;BME280;63016;55.030;38.710;2023-05-10T05:19:18;100966.72;;;11.17;44.40
74544;BME280;63016;55.030;38.710;2023-05-10T05:21:44;100968.31;;;11.37;43.73
74544;BME280;63016;55.030;38.710;2023-05-10T05:24:10;100973.84;;;11.62;43.37
74544;BME280;63016;55.030;38.710;2023-05-10T05:26:37;100977.31;;;11.80;43.40
74544;BME280;63016;55.030;38.710;2023-05-10T05:29:03;100981.38;;;11.92;43.52
74544;BME280;63016;55.030;38.710;2023-05-10T05:31:29;100968.19;;;12.12;43.11
74544;BME280;63016;55.030;38.710;2023-05-10T05:33:54;100971.47;;;12.31;43.33
74544;BME280;63016;55.030;38.710;2023-05-10T05:36:20;100963.31;;;12.52;43.50
74544;BME280;63016;55.030;38.710;2023-05-10T05:38:46;100960.63;;;12.70;43.25
74544;BME280;63016;55.030;38.710;2023-05-10T05:41:11;100949.97;;;12.90;43.32
74544;BME280;63016;55.030;38.710;2023-05-10T05:43:37;100956.16;;;13.15;42.74
74544;BME280;63016;55.030;38.710;2023-05-10T05:46:02;100957.91;;;13.32;42.86
74544;BME280;63016;55.030;38.710;2023-05-10T05:48:30;100962.91;;;13.51;42.49
74544;BME280;63016;55.030;38.710;2023-05-10T05:50:56;100955.78;;;13.70;41.99
74544;BME280;63016;55.030;38.710;2023-05-10T05:53:22;100964.34;;;13.88;41.91
74544;BME280;63016;55.030;38.710;2023-05-10T05:55:55;100962.72;;;14.03;41.88
74544;BME280;63016;55.030;38.710;2023-05-10T05:58:25;100956.50;;;14.21;41.60
74544;BME280;63016;55.030;38.710;2023-05-10T06:00:51;100956.34;;;14.38;41.57
74544;BME280;63016;55.030;38.710;2023-05-10T06:03:17;100952.59;;;14.57;41.34
74544;BME280;63016;55.030;38.710;2023-05-10T06:05:43;100950.94;;;14.73;41.38
74544;BME280;63016;55.030;38.710;2023-05-10T06:08:09;100951.91;;;14.88;41.10
74544;BME280;63016;55.030;38.710;2023-05-10T06:10:35;100945.25;;;15.08;40.96
74544;BME280;63016;55.030;38.710;2023-05-10T06:13:00;100940.47;;;15.28;41.11
74544;BME280;63016;55.030;38.710;2023-05-10T06:15:26;100942.69;;;15.48;40.73
74544;BME280;63016;55.030;38.710;2023-05-10T06:17:52;100949.34;;;15.66;40.63
74544;BME280;63016;55.030;38.710;2023-05-10T06:20:18;100945.63;;;15.84;40.39
74544;BME280;63016;55.030;38.710;2023-05-10T06:22:43;100937.97;;;15.97;40.20
74544;BME280;63016;55.030;38.710;2023-05-10T06:25:09;100938.03;;;16.12;39.71
74544;BME280;63016;55.030;38.710;2023-05-10T06:27:35;100943.44;;;16.33;39.77
74544;BME280;63016;55.030;38.710;2023-05-10T06:30:01;100930.22;;;16.41;39.70
74544;BME280;63016;55.030;38.710;2023-05-10T06:32:26;100935.16;;;16.59;39.51
74544;BME280;63016;55.030;38.710;2023-05-10T06:34:52;100940.28;;;16.76;39.49
74544;BME280;63016;55.030;38.710;2023-05-10T06:37:17;100933.41;;;16.89;39.18
74544;BME280;63016;55.030;38.710;2023-05-10T06:39:42;100936.59;;;17.00;39.24
74544;BME280;63016;55.030;38.710;2023-05-10T06:42:08;100928.47;;;17.16;39.08
74544;BME280;63016;55.030;38.710;2023-05-10T06:44:33;100925.19;;;17.29;39.24
74544;BME280;63016;55.030;38.710;2023-05-10T06:46:59;100931.91;;;17.46;39.05
74544;BME280;63016;55.030;38.710;2023-05-10T06:49:24;100928.69;;;17.65;38.64
74544;BME280;63016;55.030;38.710;2023-05-10T06:51:50;100937.41;;;17.81;38.90
74544;BME280;63016;55.030;38.710;2023-05-10T06:54:15;100935.88;;;17.93;38.59
74544;BME280;63016;55.030;38.710;2023-05-10T06:56:41;100921.56;;;18.02;37.78
74544;BME280;63016;55.030;38.710;2023-05-10T06:59:07;100928.34;;;18.11;37.79
74544;BME280;63016;55.030;38.710;2023-05-10T07:01:32;100929.25;;;18.18;37.67
74544;BME280;63016;55.030;38.710;2023-05-10T07:03:58;100924.25;;;18.30;38.00
74544;BME280;63016;55.030;38.710;2023-05-10T07:06:23;100922.53;;;18.44;37.52
74544;BME280;63016;55.030;38.710;2023-05-10T07:08:49;100916.09;;;18.53;37.57
74544;BME280;63016;55.030;38.710;2023-05-10T07:11:14;100915.19;;;18.67;37.36
74544;BME280;63016;55.030;38.710;2023-05-10T07:13:40;100916.09;;;18.81;37.70
74544;BME280;63016;55.030;38.710;2023-05-10T07:16:09;100917.41;;;18.98;37.82
74544;BME280;63016;55.030;38.710;2023-05-10T07:18:35;100911.97;;;19.13;37.58
74544;BME280;63016;55.030;38.710;2023-05-10T07:21:00;100907.78;;;19.25;37.93
74544;BME280;63016;55.030;38.710;2023-05-10T07:23:26;100908.22;;;19.36;37.39
74544;BME280;63016;55.030;38.710;2023-05-10T07:25:52;100909.91;;;19.50;37.41
74544;BME280;63016;55.030;38.710;2023-05-10T07:28:18;100907.06;;;19.58;36.88
74544;BME280;63016;55.030;38.710;2023-05-10T07:30:44;100908.34;;;19.69;36.44
74544;BME280;63016;55.030;38.710;2023-05-10T07:33:12;100911.22;;;19.74;36.41
74544;BME280;63016;55.030;38.710;2023-05-10T07:35:38;100906.34;;;19.77;36.13
74544;BME280;63016;55.030;38.710;2023-05-10T07:38:04;100909.00;;;19.84;36.18
74544;BME280;63016;55.030;38.710;2023-05-10T07:40:29;100905.31;;;19.92;36.12
74544;BME280;63016;55.030;38.710;2023-05-10T07:42:55;100896.16;;;19.94;36.00
74544;BME280;63016;55.030;38.710;2023-05-10T07:45:21;100892.72;;;20.07;36.11
74544;BME280;63016;55.030;38.710;2023-05-10T07:47:47;100884.34;;;20.10;36.10
74544;BME280;63016;55.030;38.710;2023-05-10T07:50:13;100883.56;;;20.16;35.80
74544;BME280;63016;55.030;38.710;2023-05-10T07:52:38;100894.94;;;20.30;35.50
74544;BME280;63016;55.030;38.710;2023-05-10T07:55:04;100885.56;;;20.34;35.96
74544;BME280;63016;55.030;38.710;2023-05-10T07:57:30;100884.34;;;20.50;36.01
74544;BME280;63016;55.030;38.710;2023-05-10T07:59:56;100880.63;;;20.64;36.73
74544;BME280;63016;55.030;38.710;2023-05-10T08:02:21;100893.25;;;20.82;35.66
74544;BME280;63016;55.030;38.710;2023-05-10T08:04:47;100879.38;;;20.87;35.42
74544;BME280;63016;55.030;38.710;2023-05-10T08:07:12;100887.69;;;20.97;35.45
74544;BME280;63016;55.030;38.710;2023-05-10T08:09:38;100886.66;;;20.98;34.57
74544;BME280;63016;55.030;38.710;2023-05-10T08:12:03;100874.88;;;20.94;34.67
74544;BME280;63016;55.030;38.710;2023-05-10T08:14:29;100887.91;;;20.95;34.46
74544;BME280;63016;55.030;38.710;2023-05-10T08:16:55;100880.81;;;20.89;34.25
74544;BME280;63016;55.030;38.710;2023-05-10T08:19:21;100877.75;;;20.86;34.05
74544;BME280;63016;55.030;38.710;2023-05-10T08:21:48;100866.13;;;20.80;34.44
74544;BME280;63016;55.030;38.710;2023-05-10T08:24:13;100866.53;;;20.77;34.41
74544;BME280;63016;55.030;38.710;2023-05-10T08:26:39;100869.41;;;20.75;34.52
74544;BME280;63016;55.030;38.710;2023-05-10T08:29:04;100863.06;;;20.76;34.58
74544;BME280;63016;55.030;38.710;2023-05-10T08:31:30;100857.78;;;20.76;34.22
74544;BME280;63016;55.030;38.710;2023-05-10T08:33:56;100863.50;;;20.73;34.04
74544;BME280;63016;55.030;38.710;2023-05-10T08:36:21;100861.06;;;20.72;34.25
74544;BME280;63016;55.030;38.710;2023-05-10T08:38:52;100860.66;;;20.68;34.13
74544;BME280;63016;55.030;38.710;2023-05-10T08:41:19;100862.91;;;20.71;34.10
74544;BME280;63016;55.030;38.710;2023-05-10T08:43:46;100852.69;;;20.68;33.69
74544;BME280;63016;55.030;38.710;2023-05-10T08:46:15;100853.09;;;20.72;34.38
74544;BME280;63016;55.030;38.710;2023-05-10T08:48:45;100840.63;;;20.79;34.37
74544;BME280;63016;55.030;38.710;2023-05-10T08:51:18;100849.59;;;20.78;34.02
74544;BME280;63016;55.030;38.710;2023-05-10T08:53:45;100854.91;;;20.78;33.75
74544;BME280;63016;55.030;38.710;2023-05-10T08:56:11;100847.34;;;20.82;33.74
74544;BME280;63016;55.030;38.710;2023-05-10T08:58:37;100843.06;;;20.81;33.67
74544;BME280;63016;55.030;38.710;2023-05-10T09:01:03;100839.19;;;20.83;33.52
74544;BME280;63016;55.030;38.710;2023-05-10T09:03:30;100840.81;;;20.84;33.53
74544;BME280;63016;55.030;38.710;2023-05-10T09:05:56;100835.31;;;20.79;33.19
74544;BME280;63016;55.030;38.710;2023-05-10T09:08:26;100838.41;;;20.76;33.42
74544;BME280;63016;55.030;38.710;2023-05-10T09:10:54;100838.63;;;20.68;33.12
74544;BME280;63016;55.030;38.710;2023-05-10T09:13:22;100823.97;;;20.59;33.33
74544;BME280;63016;55.030;38.710;2023-05-10T09:15:48;100826.81;;;20.57;33.43
74544;BME280;63016;55.030;38.710;2023-05-10T09:18:13;100825.41;;;20.61;33.71
74544;BME280;63016;55.030;38.710;2023-05-10T09:20:39;100817.00;;;20.64;33.84
74544;BME280;63016;55.030;38.710;2023-05-10T09:23:05;100811.69;;;20.64;33.25
74544;BME280;63016;55.030;38.710;2023-05-10T09:25:31;100806.63;;;20.63;33.44
74544;BME280;63016;55.030;38.710;2023-05-10T09:27:59;100801.94;;;20.58;33.37
74544;BME280;63016;55.030;38.710;2023-05-10T09:30:27;100800.09;;;20.59;33.30
74544;BME280;63016;55.030;38.710;2023-05-10T09:32:53;100797.25;;;20.60;33.18
74544;BME280;63016;55.030;38.710;2023-05-10T09:35:21;100794.38;;;20.62;33.31
74544;BME280;63016;55.030;38.710;2023-05-10T09:37:49;100782.56;;;20.58;33.51
74544;BME280;63016;55.030;38.710;2023-05-10T09:40:20;100784.78;;;20.67;33.60
74544;BME280;63016;55.030;38.710;2023-05-10T09:43:00;100781.28;;;20.73;33.47
74544;BME280;63016;55.030;38.710;2023-05-10T09:45:30;100789.59;;;20.84;33.35
74544;BME280;63016;55.030;38.710;2023-05-10T09:47:56;100782.66;;;20.83;33.15
74544;BME280;63016;55.030;38.710;2023-05-10T09:50:23;100773.03;;;20.88;33.39
74544;BME280;63016;55.030;38.710;2023-05-10T09:55:20;100778.28;;;21.08;33.94
74544;BME280;63016;55.030;38.710;2023-05-10T09:57:47;100774.31;;;21.17;33.68
74544;BME280;63016;55.030;38.710;2023-05-10T10:00:18;100775.09;;;21.24;33.65
74544;BME280;63016;55.030;38.710;2023-05-10T10:02:53;100774.25;;;21.37;33.88
74544;BME280;63016;55.030;38.710;2023-05-10T10:05:19;100773.16;;;21.45;33.50
74544;BME280;63016;55.030;38.710;2023-05-10T10:07:45;100765.19;;;21.45;33.08
74544;BME280;63016;55.030;38.710;2023-05-10T10:10:11;100772.50;;;21.49;33.19
74544;BME280;63016;55.030;38.710;2023-05-10T10:12:40;100766.38;;;21.49;32.93
74544;BME280;63016;55.030;38.710;2023-05-10T10:15:08;100765.56;;;21.48;32.77
74544;BME280;63016;55.030;38.710;2023-05-10T10:17:35;100762.69;;;21.50;32.82
74544;BME280;63016;55.030;38.710;2023-05-10T10:20:02;100747.63;;;21.44;32.88
74544;BME280;63016;55.030;38.710;2023-05-10T10:22:28;100755.19;;;21.47;32.73
74544;BME280;63016;55.030;38.710;2023-05-10T10:24:54;100748.03;;;21.47;32.84
74544;BME280;63016;55.030;38.710;2023-05-10T10:35:32;100754.94;;;21.48;32.93
74544;BME280;63016;55.030;38.710;2023-05-10T10:37:58;100747.78;;;21.49;32.86
74544;BME280;63016;55.030;38.710;2023-05-10T10:40:26;100742.88;;;21.52;32.78
74544;BME280;63016;55.030;38.710;2023-05-10T10:42:52;100747.72;;;21.55;32.76
74544;BME280;63016;55.030;38.710;2023-05-10T10:45:19;100738.53;;;21.58;32.64
74544;BME280;63016;55.030;38.710;2023-05-10T10:47:45;100724.22;;;21.59;32.41
74544;BME280;63016;55.030;38.710;2023-05-10T10:50:11;100724.22;;;21.59;32.42
74544;BME280;63016;55.030;38.710;2023-05-10T10:52:42;100728.66;;;21.65;32.58
74544;BME280;63016;55.030;38.710;2023-05-10T10:55:09;100723.34;;;21.65;31.96
74544;BME280;63016;55.030;38.710;2023-05-10T10:57:55;100727.41;;;21.68;33.71
74544;BME280;63016;55.030;38.710;2023-05-10T11:02:58;100725.16;;;21.71;32.27
74544;BME280;63016;55.030;38.710;2023-05-10T11:07:57;100726.16;;;21.70;32.71
74544;BME280;63016;55.030;38.710;2023-05-10T11:10:24;100721.66;;;21.71;32.23
74544;BME280;63016;55.030;38.710;2023-05-10T11:12:59;100722.50;;;21.71;32.27
74544;BME280;63016;55.030;38.710;2023-05-10T11:15:47;100716.34;;;21.71;32.16
74544;BME280;63016;55.030;38.710;2023-05-10T11:18:20;100713.16;;;21.62;32.19
74544;BME280;63016;55.030;38.710;2023-05-10T11:20:56;100709.91;;;21.60;32.22
74544;BME280;63016;55.030;38.710;2023-05-10T11:23:28;100706.22;;;21.61;32.31
74544;BME280;63016;55.030;38.710;2023-05-10T11:25:54;100707.06;;;21.62;31.88
74544;BME280;63016;55.030;38.710;2023-05-10T11:28:20;100693.97;;;21.60;32.01
74544;BME280;63016;55.030;38.710;2023-05-10T11:30:45;100682.91;;;21.63;32.13
74544;BME280;63016;55.030;38.710;2023-05-10T11:33:18;100689.63;;;21.66;31.97
74544;BME280;63016;55.030;38.710;2023-05-10T11:35:45;100687.56;;;21.68;32.07
74544;BME280;63016;55.030;38.710;2023-05-10T11:38:12;100672.28;;;21.63;31.89
74544;BME280;63016;55.030;38.710;2023-05-10T11:40:41;100677.91;;;21.73;31.94
74544;BME280;63016;55.030;38.710;2023-05-10T11:43:08;100669.94;;;21.73;32.04
74544;BME280;63016;55.030;38.710;2023-05-10T11:45:35;100672.38;;;21.75;32.12
74544;BME280;63016;55.030;38.710;2023-05-10T11:48:01;100672.97;;;21.77;31.83
74544;BME280;63016;55.030;38.710;2023-05-10T11:50:28;100670.75;;;21.74;31.63
74544;BME280;63016;55.030;38.710;2023-05-10T11:52:57;100671.19;;;21.71;32.23
74544;BME280;63016;55.030;38.710;2023-05-10T11:55:24;100673.25;;;21.69;31.99
74544;BME280;63016;55.030;38.710;2023-05-10T11:58:00;100670.59;;;21.69;32.25
74544;BME280;63016;55.030;38.710;2023-05-10T12:00:26;100668.75;;;21.69;31.84
74544;BME280;63016;55.030;38.710;2023-05-10T12:02:51;100662.47;;;21.64;31.81
74544;BME280;63016;55.030;38.710;2023-05-10T12:05:17;100666.84;;;21.58;31.65
74544;BME280;63016;55.030;38.710;2023-05-10T12:07:43;100669.09;;;21.54;31.51
74544;BME280;63016;55.030;38.710;2023-05-10T12:10:13;100670.38;;;21.52;31.78
74544;BME280;63016;55.030;38.710;2023-05-10T12:12:45;100665.06;;;21.52;31.70
74544;BME280;63016;55.030;38.710;2023-05-10T12:15:23;100655.09;;;21.47;31.87
74544;BME280;63016;55.030;38.710;2023-05-10T12:17:49;100660.59;;;21.46;31.45
74544;BME280;63016;55.030;38.710;2023-05-10T12:20:27;100661.25;;;21.41;31.98
74544;BME280;63016;55.030;38.710;2023-05-10T12:22:55;100649.66;;;21.36;31.38
74544;BME280;63016;55.030;38.710;2023-05-10T12:25:23;100652.97;;;21.31;31.52
74544;BME280;63016;55.030;38.710;2023-05-10T12:27:51;100651.16;;;21.25;31.54
74544;BME280;63016;55.030;38.710;2023-05-10T12:30:24;100648.19;;;21.15;31.26
74544;BME280;63016;55.030;38.710;2023-05-10T12:32:52;100632.59;;;21.00;31.43
74544;BME280;63016;55.030;38.710;2023-05-10T12:35:18;100640.53;;;21.00;31.38
74544;BME280;63016;55.030;38.710;2023-05-10T12:37:47;100650.78;;;20.96;31.72
74544;BME280;63016;55.030;38.710;2023-05-10T12:40:13;100645.88;;;20.93;31.66
74544;BME280;63016;55.030;38.710;2023-05-10T12:42:39;100650.59;;;20.91;31.57
74544;BME280;63016;55.030;38.710;2023-05-10T12:45:06;100641.66;;;20.86;31.37
74544;BME280;63016;55.030;38.710;2023-05-10T12:47:33;100642.31;;;20.81;31.82
74544;BME280;63016;55.030;38.710;2023-05-10T12:50:00;100639.88;;;20.79;31.88
74544;BME280;63016;55.030;38.710;2023-05-10T12:52:26;100644.34;;;20.79;31.27
74544;BME280;63016;55.030;38.710;2023-05-10T12:54:52;100634.81;;;20.71;31.27
74544;BME280;63016;55.030;38.710;2023-05-10T12:57:19;100641.53;;;20.74;31.64
74544;BME280;63016;55.030;38.710;2023-05-10T12:59:45;100645.81;;;20.75;31.31
74544;BME280;63016;55.030;38.710;2023-05-10T13:02:10;100638.69;;;20.75;31.46
74544;BME280;63016;55.030;38.710;2023-05-10T13:04:36;100637.88;;;20.75;31.67
74544;BME280;63016;55.030;38.710;2023-05-10T13:07:08;100641.34;;;20.75;31.74
74544;BME280;63016;55.030;38.710;2023-05-10T13:09:36;100628.25;;;20.74;31.71
74544;BME280;63016;55.030;38.710;2023-05-10T13:12:02;100630.72;;;20.75;31.68